createdAt,value
2022-07-26T00:02:29.032Z,2.13
2022-07-26T00:05:32.794Z,2.53
2022-07-26T00:08:35.001Z,2.92
2022-07-26T00:11:36.872Z,2.22
2022-07-26T00:14:39.962Z,2.25
2022-07-26T00:17:43.301Z,2.20
2022-07-26T00:20:48.049Z,2.65
2022-07-26T00:23:50.626Z,2.25
2022-07-26T00:26:57.777Z,2.70
2022-07-26T00:30:00.057Z,2.83
2022-07-26T00:33:03.141Z,3.13
2022-07-26T00:36:05.294Z,2.53
2022-07-26T00:39:08.470Z,2.40
2022-07-26T00:42:11.376Z,3.00
2022-07-26T00:45:13.867Z,3.03
2022-07-26T00:48:17.357Z,2.42
2022-07-26T00:51:20.933Z,2.70
2022-07-26T00:54:23.609Z,2.17
2022-07-26T00:57:26.084Z,2.53
2022-07-26T01:00:29.338Z,2.58
2022-07-26T01:03:39.606Z,2.63
2022-07-26T01:06:43.058Z,2.20
2022-07-26T01:09:46.557Z,2.38
2022-07-26T01:12:49.362Z,2.50
2022-07-26T01:15:51.291Z,2.50
2022-07-26T01:18:53.303Z,2.40
2022-07-26T01:21:55.115Z,2.08
2022-07-26T01:24:57.362Z,3.10
2022-07-26T01:27:59.311Z,2.38
2022-07-26T01:31:01.414Z,2.35
2022-07-26T01:34:03.801Z,2.25
2022-07-26T01:37:06.366Z,1.75
2022-07-26T01:40:09.360Z,2.35
2022-07-26T01:43:12.733Z,2.42
2022-07-26T01:46:14.976Z,2.25
2022-07-26T01:49:20.384Z,2.20
2022-07-26T01:52:22.616Z,2.10
2022-07-26T01:55:24.682Z,2.30
2022-07-26T01:58:26.750Z,2.40
2022-07-26T02:01:39.384Z,2.38
2022-07-26T02:05:00.400Z,1.80
2022-07-26T02:08:04.046Z,2.22
2022-07-26T02:11:06.479Z,2.35
2022-07-26T02:14:09.017Z,2.67
2022-07-26T02:17:11.780Z,2.53
2022-07-26T02:20:17.043Z,2.50
2022-07-26T02:23:19.249Z,2.88
2022-07-26T02:26:21.267Z,2.85
2022-07-26T02:29:23.708Z,2.45
2022-07-26T02:32:26.126Z,2.53
2022-07-26T02:35:28.564Z,2.65
2022-07-26T02:38:30.460Z,2.42
2022-07-26T02:41:33.652Z,1.98
2022-07-26T02:44:36.134Z,2.00
2022-07-26T02:47:53.307Z,1.75
2022-07-26T02:50:57.841Z,2.75
2022-07-26T02:53:59.799Z,2.28
2022-07-26T02:57:02.220Z,2.60
2022-07-26T03:00:07.591Z,2.53
2022-07-26T03:03:14.293Z,2.30
2022-07-26T03:06:16.654Z,2.70
2022-07-26T03:09:18.545Z,2.08
2022-07-26T03:12:20.473Z,2.80
2022-07-26T03:15:22.630Z,2.53
2022-07-26T03:18:24.774Z,2.63
2022-07-26T03:21:26.693Z,2.70
2022-07-26T03:24:28.577Z,2.80
2022-07-26T03:27:30.482Z,2.50
2022-07-26T03:30:32.496Z,2.15
2022-07-26T03:33:34.519Z,2.50
2022-07-26T03:36:36.467Z,2.65
2022-07-26T03:39:38.465Z,2.15
2022-07-26T03:42:40.977Z,2.20
2022-07-26T03:45:44.189Z,2.35
2022-07-26T03:48:46.060Z,2.65
2022-07-26T03:51:48.101Z,3.30
2022-07-26T03:54:50.028Z,3.40
2022-07-26T03:57:51.975Z,2.95
2022-07-26T04:00:53.871Z,3.83
2022-07-26T04:03:55.794Z,4.47
2022-07-26T04:06:58.211Z,4.03
2022-07-26T04:10:06.205Z,3.88
2022-07-26T04:13:08.003Z,4.85
2022-07-26T04:16:10.232Z,4.28
2022-07-26T04:19:12.391Z,4.35
2022-07-26T04:22:14.223Z,4.70
2022-07-26T04:25:16.316Z,4.18
2022-07-26T04:28:18.451Z,3.63
2022-07-26T04:31:20.827Z,3.97
2022-07-26T04:34:22.820Z,4.13
2022-07-26T04:37:24.812Z,3.55
2022-07-26T04:40:29.380Z,3.42
2022-07-26T04:43:31.997Z,3.67
2022-07-26T04:46:34.112Z,3.03
2022-07-26T04:49:38.297Z,3.15
2022-07-26T04:52:40.584Z,3.63
2022-07-26T04:55:42.906Z,3.08
2022-07-26T04:58:44.851Z,3.65
2022-07-26T05:01:46.848Z,3.00
2022-07-26T05:04:48.994Z,3.58
2022-07-26T05:07:57.018Z,3.20
2022-07-26T05:10:59.383Z,2.97
2022-07-26T05:14:01.259Z,2.92
2022-07-26T05:17:08.952Z,3.35
2022-07-26T05:20:15.791Z,3.00
2022-07-26T05:23:17.702Z,3.38
2022-07-26T05:26:21.987Z,3.40
2022-07-26T05:29:27.076Z,3.38
2022-07-26T05:32:29.219Z,3.53
2022-07-26T05:35:31.301Z,3.00
2022-07-26T05:38:35.234Z,3.22
2022-07-26T05:41:37.597Z,3.65
2022-07-26T05:44:42.779Z,3.38
2022-07-26T05:47:54.208Z,3.25
2022-07-26T05:50:56.114Z,3.08
2022-07-26T05:53:58.228Z,3.70
2022-07-26T05:57:03.036Z,3.20
2022-07-26T06:00:05.972Z,3.63
2022-07-26T06:03:26.116Z,3.08
2022-07-26T06:06:30.613Z,3.40
2022-07-26T06:09:33.196Z,3.13
2022-07-26T06:12:37.257Z,3.03
2022-07-26T06:15:39.596Z,3.83
2022-07-26T06:18:41.699Z,3.78
2022-07-26T06:21:45.906Z,3.42
2022-07-26T06:24:50.268Z,3.08
2022-07-26T06:27:52.371Z,3.80
2022-07-26T06:30:54.608Z,3.30
2022-07-26T06:33:56.936Z,3.15
2022-07-26T06:36:59.338Z,3.88
2022-07-26T06:40:03.950Z,3.63
2022-07-26T06:43:06.318Z,3.35
2022-07-26T06:46:08.377Z,3.85
2022-07-26T06:49:10.506Z,3.75
2022-07-26T06:52:12.657Z,3.55
2022-07-26T06:55:15.057Z,3.72
2022-07-26T06:58:17.236Z,4.05
2022-07-26T07:01:58.611Z,3.55
2022-07-26T07:04:43.297Z,3.80
2022-07-26T07:07:47.927Z,3.08
2022-07-26T07:10:50.841Z,3.30
2022-07-26T07:13:53.037Z,2.85
2022-07-26T07:16:55.526Z,3.05
2022-07-26T07:19:58.047Z,2.72
2022-07-26T07:23:03.052Z,3.07
2022-07-26T07:26:05.318Z,2.75
2022-07-26T07:29:07.561Z,3.60
2022-07-26T07:32:15.879Z,3.53
2022-07-26T07:35:20.708Z,3.65
2022-07-26T07:38:22.950Z,4.30
2022-07-26T07:41:25.224Z,3.40
2022-07-26T07:44:27.823Z,3.83
2022-07-26T07:47:30.734Z,3.53
2022-07-26T07:50:33.211Z,3.33
2022-07-26T07:53:36.374Z,3.72
2022-07-26T07:56:38.889Z,3.33
2022-07-26T07:59:49.009Z,3.35
2022-07-26T08:02:51.199Z,4.00
2022-07-26T08:05:53.369Z,3.97
2022-07-26T08:08:55.618Z,3.95
2022-07-26T08:11:57.803Z,4.35
2022-07-26T08:15:01.222Z,4.18
2022-07-26T08:18:10.621Z,4.10
2022-07-26T08:24:18.362Z,4.22
2022-07-26T08:27:20.441Z,4.25
2022-07-26T08:30:23.097Z,4.60
2022-07-26T08:33:25.217Z,5.50
2022-07-26T08:36:32.602Z,4.95
2022-07-26T08:39:35.465Z,5.50
2022-07-26T08:42:40.386Z,5.68
2022-07-26T08:45:42.792Z,5.57
2022-07-26T08:48:46.242Z,5.82
2022-07-26T08:51:48.347Z,5.63
2022-07-26T08:54:55.233Z,6.28
2022-07-26T08:57:57.447Z,7.15
2022-07-26T09:01:13.385Z,7.05
2022-07-26T09:04:31.202Z,7.30
2022-07-26T09:07:34.923Z,7.03
2022-07-26T09:10:39.328Z,7.60
2022-07-26T09:14:01.333Z,6.70
2022-07-26T09:17:06.452Z,8.43
2022-07-26T09:20:29.118Z,10.45
2022-07-26T09:23:43.127Z,10.68
2022-07-26T09:26:55.744Z,11.48
2022-07-26T09:30:05.967Z,12.68
2022-07-26T09:33:10.614Z,13.20
2022-07-26T09:36:12.834Z,16.27
2022-07-26T09:39:15.402Z,14.80
2022-07-26T09:42:28.535Z,15.57
2022-07-26T09:45:33.426Z,15.90
2022-07-26T09:52:02.243Z,18.30
2022-07-26T09:55:09.283Z,20.90
2022-07-26T09:58:16.555Z,20.77
2022-07-26T10:01:20.908Z,23.98
2022-07-26T10:04:23.616Z,26.75
2022-07-26T10:07:25.696Z,28.35
2022-07-26T10:10:35.724Z,31.10
2022-07-26T10:13:45.315Z,33.25
2022-07-26T10:16:49.961Z,35.50
2022-07-26T10:19:53.577Z,35.65
2022-07-26T10:22:58.508Z,36.25
2022-07-26T10:26:01.271Z,35.83
2022-07-26T10:29:19.448Z,36.75
2022-07-26T10:32:21.918Z,37.70
2022-07-26T10:35:29.987Z,37.78
2022-07-26T10:38:32.000Z,38.20
2022-07-26T10:41:34.114Z,40.05
2022-07-26T10:44:42.062Z,41.38
2022-07-26T10:48:22.935Z,40.08
2022-07-26T10:51:26.787Z,40.45
2022-07-26T10:54:28.900Z,40.63
2022-07-26T10:57:39.612Z,44.28
2022-07-26T11:00:46.138Z,44.90
2022-07-26T11:03:50.481Z,44.13
2022-07-26T11:06:52.762Z,42.28
2022-07-26T11:09:59.408Z,40.28
2022-07-26T11:13:09.740Z,43.33
2022-07-26T11:16:13.442Z,43.80
2022-07-26T11:19:27.784Z,40.47
2022-07-26T11:22:39.585Z,42.03
2022-07-26T11:26:07.555Z,39.05
2022-07-26T11:29:09.459Z,36.83
2022-07-26T11:32:20.325Z,35.38
2022-07-26T11:35:22.606Z,31.63
2022-07-26T11:38:51.870Z,29.90
2022-07-26T11:42:13.742Z,28.80
2022-07-26T11:45:16.130Z,26.35
2022-07-26T11:48:17.987Z,25.73
2022-07-26T11:51:24.163Z,25.88
2022-07-26T11:54:29.166Z,22.40
2022-07-26T11:57:32.409Z,23.05
2022-07-26T12:00:34.832Z,23.50
2022-07-26T12:03:38.175Z,21.13
2022-07-26T12:06:41.187Z,20.15
2022-07-26T12:09:51.058Z,20.27
2022-07-26T12:13:13.074Z,20.25
2022-07-26T12:16:38.616Z,18.92
2022-07-26T12:19:44.150Z,19.83
2022-07-26T12:26:21.518Z,19.13
2022-07-26T12:29:34.727Z,19.52
2022-07-26T12:32:38.813Z,19.23
2022-07-26T12:35:46.011Z,19.27
2022-07-26T12:38:48.145Z,18.52
2022-07-26T12:41:51.105Z,17.90
2022-07-26T12:44:53.158Z,15.52
2022-07-26T12:48:00.575Z,15.65
2022-07-26T12:51:03.927Z,14.70
2022-07-26T12:54:12.775Z,13.05
2022-07-26T12:57:26.580Z,11.60
2022-07-26T13:00:34.697Z,10.93
2022-07-26T13:03:36.990Z,11.27
2022-07-26T13:06:41.800Z,9.65
2022-07-26T13:09:45.222Z,6.32
2022-07-26T13:12:50.702Z,5.78
2022-07-26T13:15:52.801Z,4.88
2022-07-26T13:18:57.489Z,4.55
2022-07-26T13:22:00.514Z,4.07
2022-07-26T13:25:08.734Z,3.65
2022-07-26T13:28:20.683Z,2.45
2022-07-26T13:31:31.171Z,2.28
2022-07-26T13:34:39.880Z,2.05
2022-07-26T13:37:44.469Z,2.13
2022-07-26T13:40:50.899Z,2.05
2022-07-26T13:47:02.573Z,1.88
2022-07-26T13:50:09.633Z,1.77
2022-07-26T13:53:12.112Z,1.80
2022-07-26T13:56:18.955Z,1.60
2022-07-26T13:59:29.588Z,1.70
2022-07-26T14:02:32.856Z,1.17
2022-07-26T14:05:44.999Z,1.20
2022-07-26T14:08:47.758Z,1.40
2022-07-26T14:11:50.294Z,1.42
2022-07-26T14:14:56.000Z,0.85
2022-07-26T14:17:58.151Z,0.80
2022-07-26T14:21:10.725Z,0.98
2022-07-26T14:24:14.308Z,0.80
2022-07-26T14:27:18.517Z,0.85
2022-07-26T14:30:22.333Z,0.95
2022-07-26T14:33:24.449Z,1.05
2022-07-26T14:36:26.500Z,0.90
2022-07-26T14:39:29.039Z,0.90
2022-07-26T14:42:31.493Z,0.90
2022-07-26T14:45:34.146Z,1.55
2022-07-26T14:48:53.417Z,2.17
2022-07-26T14:51:56.970Z,1.52
2022-07-26T14:54:59.079Z,1.83
2022-07-26T14:58:01.464Z,1.42
2022-07-26T15:01:04.697Z,1.58
2022-07-26T15:04:09.826Z,1.55
2022-07-26T15:07:14.118Z,1.55
2022-07-26T15:10:17.163Z,1.95
2022-07-26T15:13:20.041Z,2.38
2022-07-26T15:16:22.399Z,1.45
2022-07-26T15:19:25.991Z,1.50
2022-07-26T15:22:28.479Z,1.38
2022-07-26T15:25:32.451Z,1.63
2022-07-26T15:28:34.870Z,2.00
2022-07-26T15:31:37.958Z,1.88
2022-07-26T15:34:40.919Z,2.00
2022-07-26T15:37:44.045Z,1.92
2022-07-26T15:40:46.844Z,1.80
2022-07-26T15:43:49.377Z,1.67
2022-07-26T15:46:53.266Z,1.67
2022-07-26T15:49:55.646Z,1.80
2022-07-26T15:52:59.124Z,1.90
2022-07-26T15:56:03.400Z,1.73
2022-07-26T15:59:09.951Z,1.77
2022-07-26T16:02:12.470Z,2.28
2022-07-26T16:05:16.492Z,1.73
2022-07-26T16:08:18.999Z,1.80
2022-07-26T16:11:23.432Z,1.80
2022-07-26T16:14:26.628Z,1.30
2022-07-26T16:17:29.534Z,1.40
2022-07-26T16:20:34.506Z,1.60
2022-07-26T16:23:38.180Z,1.70
2022-07-26T16:26:42.067Z,1.70
2022-07-26T16:29:46.811Z,1.75
2022-07-26T16:32:52.549Z,1.35
2022-07-26T16:36:04.255Z,1.50
2022-07-26T16:39:08.536Z,1.42
2022-07-26T16:42:10.943Z,1.40
2022-07-26T16:45:13.215Z,1.52
2022-07-26T16:48:15.121Z,1.23
2022-07-26T16:51:17.463Z,1.60
2022-07-26T16:54:19.669Z,1.85
2022-07-26T16:57:21.929Z,1.02
2022-07-26T17:00:24.097Z,1.38
2022-07-26T17:03:26.553Z,1.55
2022-07-26T17:06:29.038Z,1.50
2022-07-26T17:09:31.310Z,1.40
2022-07-26T17:12:33.973Z,1.23
2022-07-26T17:15:36.754Z,1.10
2022-07-26T17:18:38.936Z,1.20
2022-07-26T17:21:43.258Z,1.20
2022-07-26T17:24:49.029Z,1.20
2022-07-26T17:27:51.644Z,1.30
2022-07-26T17:30:54.117Z,0.85
2022-07-26T17:33:56.193Z,1.00
2022-07-26T17:37:05.732Z,1.08
2022-07-26T17:40:11.308Z,1.00
2022-07-26T17:43:19.358Z,1.00
2022-07-26T17:46:24.180Z,1.10
2022-07-26T17:49:26.704Z,1.00
2022-07-26T17:52:29.111Z,1.20
2022-07-26T17:55:31.399Z,1.20
2022-07-26T17:58:33.520Z,0.80
2022-07-26T18:01:35.509Z,1.08
2022-07-26T18:04:37.847Z,1.00
2022-07-26T18:07:41.666Z,1.08
2022-07-26T18:10:48.917Z,1.25
2022-07-26T18:13:53.254Z,1.08
2022-07-26T18:16:57.071Z,1.20
2022-07-26T18:19:59.256Z,1.10
2022-07-26T18:23:02.842Z,1.13
2022-07-26T18:26:04.833Z,1.02
2022-07-26T18:29:07.756Z,1.02
2022-07-26T18:32:10.569Z,1.38
2022-07-26T18:35:15.000Z,1.10
2022-07-26T18:38:17.397Z,1.40
2022-07-26T18:41:20.433Z,1.50
2022-07-26T18:44:22.878Z,1.05
2022-07-26T18:47:27.823Z,1.38
2022-07-26T18:50:30.974Z,1.55
2022-07-26T18:53:37.319Z,0.80
2022-07-26T18:56:40.106Z,1.50
2022-07-26T18:59:44.969Z,1.38
2022-07-26T19:02:48.421Z,1.48
2022-07-26T19:05:51.202Z,1.33
2022-07-26T19:08:54.001Z,1.15
2022-07-26T19:12:00.527Z,1.08
2022-07-26T19:15:04.105Z,1.10
2022-07-26T19:18:14.980Z,1.50
2022-07-26T19:21:20.564Z,1.38
2022-07-26T19:24:22.936Z,1.35
2022-07-26T19:27:26.398Z,1.50
2022-07-26T19:33:34.616Z,1.15
2022-07-26T19:36:37.103Z,1.15
2022-07-26T19:39:39.587Z,1.30
2022-07-26T19:42:43.173Z,1.73
2022-07-26T19:45:47.171Z,1.27
2022-07-26T19:48:49.389Z,1.70
2022-07-26T19:51:52.598Z,1.90
2022-07-26T19:54:55.046Z,1.65
2022-07-26T19:57:57.248Z,2.17
2022-07-26T20:01:02.524Z,1.30
2022-07-26T20:04:04.812Z,2.05
2022-07-26T20:07:07.361Z,1.40
2022-07-26T20:10:09.571Z,1.98
2022-07-26T20:13:12.461Z,1.60
2022-07-26T20:16:15.076Z,1.58
2022-07-26T20:19:17.771Z,1.63
2022-07-26T20:22:20.826Z,2.17
2022-07-26T20:25:23.935Z,1.77
2022-07-26T20:28:26.002Z,2.20
2022-07-26T20:31:28.198Z,2.05
2022-07-26T20:34:30.518Z,2.28
2022-07-26T20:37:32.553Z,2.03
2022-07-26T20:40:35.071Z,1.65
2022-07-26T20:43:37.015Z,1.92
2022-07-26T20:46:42.505Z,2.10
2022-07-26T20:49:45.057Z,2.15
2022-07-26T20:52:50.458Z,1.90
2022-07-26T20:55:52.459Z,2.08
2022-07-26T20:58:55.682Z,1.90
2022-07-26T21:01:57.583Z,1.85
2022-07-26T21:04:59.790Z,1.98
2022-07-26T21:08:02.240Z,2.05
2022-07-26T21:11:04.265Z,2.30
2022-07-26T21:14:06.349Z,2.20
2022-07-26T21:17:11.919Z,1.88
2022-07-26T21:20:16.082Z,2.40
2022-07-26T21:23:18.508Z,2.15
2022-07-26T21:26:22.117Z,2.25
2022-07-26T21:29:24.482Z,2.60
2022-07-26T21:32:31.315Z,2.45
2022-07-26T21:35:33.847Z,2.08
2022-07-26T21:38:35.879Z,2.03
2022-07-26T21:41:39.152Z,2.30
2022-07-26T21:44:41.289Z,2.22
2022-07-26T21:47:43.361Z,2.42
2022-07-26T21:50:45.247Z,2.50
2022-07-26T21:53:47.459Z,1.48
2022-07-26T21:56:49.891Z,2.10
2022-07-26T21:59:51.977Z,2.22
2022-07-26T22:02:54.114Z,1.95
2022-07-26T22:05:56.370Z,2.28
2022-07-26T22:08:58.354Z,2.17
2022-07-26T22:12:00.380Z,1.95
2022-07-26T22:15:02.833Z,2.28
2022-07-26T22:18:05.133Z,2.20
2022-07-26T22:21:07.216Z,2.00
2022-07-26T22:24:09.155Z,2.28
2022-07-26T22:27:13.550Z,2.22
2022-07-26T22:30:18.431Z,2.50
2022-07-26T22:33:21.028Z,2.17
2022-07-26T22:36:23.078Z,2.38
2022-07-26T22:39:26.471Z,2.00
2022-07-26T22:42:28.434Z,2.13
2022-07-26T22:45:31.120Z,2.20
2022-07-26T22:48:35.928Z,2.58
2022-07-26T22:51:40.377Z,2.45
2022-07-26T22:54:42.255Z,2.35
2022-07-26T22:57:44.820Z,2.42
2022-07-26T23:00:47.012Z,2.00
2022-07-26T23:03:49.887Z,2.40
2022-07-26T23:06:52.808Z,2.38
2022-07-26T23:09:57.341Z,2.17
2022-07-26T23:12:59.676Z,2.20
2022-07-26T23:16:02.811Z,1.77
2022-07-26T23:19:04.737Z,2.17
2022-07-26T23:22:06.842Z,2.05
2022-07-26T23:25:09.066Z,2.92
2022-07-26T23:28:36.014Z,2.63
2022-07-26T23:31:33.360Z,2.53
2022-07-26T23:34:35.597Z,2.38
2022-07-26T23:37:37.520Z,2.50
2022-07-26T23:40:39.434Z,2.38
2022-07-26T23:43:43.618Z,2.47
2022-07-26T23:46:45.710Z,2.35
2022-07-26T23:49:47.896Z,2.88
2022-07-26T23:52:49.812Z,2.67
2022-07-26T23:55:51.671Z,3.55
2022-07-26T23:58:53.751Z,3.40
